createdAt,value
2023-11-20T00:01:54.664Z,-0.94
2023-11-20T00:04:22.048Z,-0.97
2023-11-20T00:06:49.446Z,-0.96
2023-11-20T00:09:17.093Z,-0.89
2023-11-20T00:11:44.666Z,-0.91
2023-11-20T00:14:12.430Z,-0.89
2023-11-20T00:16:40.032Z,-0.96
2023-11-20T00:19:11.820Z,-0.94
2023-11-20T00:21:41.131Z,-0.88
2023-11-20T00:24:09.327Z,-0.90
2023-11-20T00:26:36.952Z,-0.91
2023-11-20T00:29:05.604Z,-0.93
2023-11-20T00:31:36.032Z,-0.89
2023-11-20T00:34:04.139Z,-0.85
2023-11-20T00:36:31.824Z,-0.84
2023-11-20T00:38:59.458Z,-0.89
2023-11-20T00:41:28.616Z,-0.90
2023-11-20T00:43:56.103Z,-0.92
2023-11-20T00:46:23.752Z,-0.87
2023-11-20T00:48:51.165Z,-0.87
2023-11-20T00:51:18.702Z,-0.81
2023-11-20T00:53:50.144Z,-0.85
2023-11-20T00:56:20.612Z,-0.86
2023-11-20T00:58:48.451Z,-0.87
2023-11-20T01:01:15.828Z,-0.85
2023-11-20T01:03:44.623Z,-0.83
2023-11-20T01:06:14.118Z,-0.86
2023-11-20T01:08:41.490Z,-0.84
2023-11-20T01:11:09.903Z,-0.91
2023-11-20T01:13:37.979Z,-0.89
2023-11-20T01:16:06.758Z,-0.80
2023-11-20T01:18:34.357Z,-0.89
2023-11-20T01:21:01.952Z,-0.92
2023-11-20T01:23:29.220Z,-0.96
2023-11-20T01:25:57.093Z,-0.91
2023-11-20T01:28:24.507Z,-0.95
2023-11-20T01:30:52.536Z,-0.97
2023-11-20T01:33:20.304Z,-0.96
2023-11-20T01:35:48.826Z,-0.95
2023-11-20T01:38:17.583Z,-1.03
2023-11-20T01:40:45.386Z,-0.99
2023-11-20T01:43:13.289Z,-0.98
2023-11-20T01:45:40.943Z,-0.95
2023-11-20T01:48:09.001Z,-0.96
2023-11-20T01:50:36.742Z,-0.96
2023-11-20T01:53:04.509Z,-1.05
2023-11-20T01:55:32.973Z,-0.96
2023-11-20T01:58:00.746Z,-0.99
2023-11-20T02:00:28.223Z,-1.05
2023-11-20T02:02:55.888Z,-1.07
2023-11-20T02:05:23.898Z,-1.08
2023-11-20T02:07:51.268Z,-1.11
2023-11-20T02:10:18.830Z,-1.02
2023-11-20T02:12:46.350Z,-1.07
2023-11-20T02:15:13.703Z,-1.05
2023-11-20T02:17:41.151Z,-1.03
2023-11-20T02:20:08.653Z,-1.06
2023-11-20T02:22:36.340Z,-1.09
2023-11-20T02:25:03.938Z,-1.08
2023-11-20T02:27:42.005Z,-1.07
2023-11-20T02:30:09.817Z,-1.13
2023-11-20T02:32:37.167Z,-1.03
2023-11-20T02:35:05.847Z,-0.99
2023-11-20T02:37:33.570Z,-1.10
2023-11-20T02:40:01.282Z,-1.11
2023-11-20T02:42:28.578Z,-1.03
2023-11-20T02:44:56.073Z,-1.05
2023-11-20T02:47:24.008Z,-1.02
2023-11-20T02:49:51.353Z,-1.05
2023-11-20T02:52:18.610Z,-0.99
2023-11-20T02:54:46.076Z,-1.00
2023-11-20T02:57:13.852Z,-1.02
2023-11-20T02:59:41.484Z,-1.03
2023-11-20T03:02:09.113Z,-1.06
2023-11-20T03:04:36.521Z,-1.11
2023-11-20T03:07:03.940Z,-1.14
2023-11-20T03:09:31.731Z,-1.13
2023-11-20T03:11:59.306Z,-1.19
2023-11-20T03:14:26.752Z,-1.15
2023-11-20T03:16:54.261Z,-1.13
2023-11-20T03:19:21.650Z,-1.09
2023-11-20T03:21:48.980Z,-1.12
2023-11-20T03:24:16.313Z,-1.12
2023-11-20T03:26:43.597Z,-1.24
2023-11-20T03:29:11.181Z,-1.24
2023-11-20T03:31:40.550Z,-1.24
2023-11-20T03:34:07.940Z,-1.25
2023-11-20T03:36:36.352Z,-1.27
2023-11-20T03:39:04.355Z,-1.20
2023-11-20T03:41:32.269Z,-1.22
2023-11-20T03:43:59.751Z,-1.27
2023-11-20T03:46:27.265Z,-1.26
2023-11-20T03:48:54.696Z,-1.25
2023-11-20T03:51:22.107Z,-1.38
2023-11-20T03:53:49.418Z,-1.35
2023-11-20T03:56:16.867Z,-1.31
2023-11-20T03:58:45.558Z,-1.27
2023-11-20T04:01:15.960Z,-1.32
2023-11-20T04:03:43.357Z,-1.36
2023-11-20T04:06:10.883Z,-1.40
2023-11-20T04:08:38.426Z,-1.41
2023-11-20T04:11:05.876Z,-1.41
2023-11-20T04:13:33.470Z,-1.41
2023-11-20T04:16:01.096Z,-1.36
2023-11-20T04:18:29.616Z,-1.30
2023-11-20T04:20:57.147Z,-1.30
2023-11-20T04:23:24.821Z,-1.28
2023-11-20T04:25:52.302Z,-1.25
2023-11-20T04:28:19.819Z,-1.22
2023-11-20T04:30:47.929Z,-1.23
2023-11-20T04:33:15.328Z,-1.32
2023-11-20T04:35:43.445Z,-1.27
2023-11-20T04:38:10.705Z,-1.26
2023-11-20T04:40:37.982Z,-1.22
2023-11-20T04:43:05.965Z,-1.29
2023-11-20T04:45:33.245Z,-1.28
2023-11-20T04:48:00.786Z,-1.30
2023-11-20T04:50:28.095Z,-1.31
2023-11-20T04:52:55.432Z,-1.34
2023-11-20T04:55:22.799Z,-1.24
2023-11-20T04:57:50.403Z,-1.25
2023-11-20T05:00:17.997Z,-1.26
2023-11-20T05:02:46.226Z,-1.41
2023-11-20T05:05:14.558Z,-1.48
2023-11-20T05:07:41.863Z,-1.47
2023-11-20T05:10:09.456Z,-1.43
2023-11-20T05:12:36.817Z,-1.51
2023-11-20T05:15:04.360Z,-1.52
2023-11-20T05:17:31.671Z,-1.51
2023-11-20T05:19:59.373Z,-1.46
2023-11-20T05:22:27.485Z,-1.47
2023-11-20T05:24:55.122Z,-1.56
2023-11-20T05:27:22.762Z,-1.39
2023-11-20T05:29:50.166Z,-1.40
2023-11-20T05:32:17.726Z,-1.44
2023-11-20T05:34:45.255Z,-1.49
2023-11-20T05:37:14.088Z,-1.53
2023-11-20T05:39:41.523Z,-1.49
2023-11-20T05:42:08.939Z,-1.47
2023-11-20T05:44:36.352Z,-1.48
2023-11-20T05:47:04.123Z,-1.54
2023-11-20T05:49:31.716Z,-1.52
2023-11-20T05:51:59.366Z,-1.55
2023-11-20T05:54:26.984Z,-1.58
2023-11-20T05:56:54.668Z,-1.60
2023-11-20T05:59:22.005Z,-1.53
2023-11-20T06:01:50.434Z,-1.39
2023-11-20T06:04:18.107Z,-1.31
2023-11-20T06:06:45.656Z,-1.35
2023-11-20T06:09:13.737Z,-1.44
2023-11-20T06:11:43.781Z,-1.43
2023-11-20T06:14:11.462Z,-1.32
2023-11-20T06:16:39.208Z,-1.41
2023-11-20T06:19:08.109Z,-1.48
2023-11-20T06:21:35.427Z,-1.49
2023-11-20T06:24:02.953Z,-1.41
2023-11-20T06:26:30.564Z,-1.44
2023-11-20T06:28:57.833Z,-1.31
2023-11-20T06:31:25.610Z,-1.29
2023-11-20T06:33:53.024Z,-1.25
2023-11-20T06:36:20.641Z,-1.34
2023-11-20T06:38:48.212Z,-1.29
2023-11-20T06:41:18.680Z,-1.33
2023-11-20T06:43:46.745Z,-1.34
2023-11-20T06:46:20.336Z,-1.29
2023-11-20T06:48:47.684Z,-1.27
2023-11-20T06:51:15.531Z,-1.26
2023-11-20T06:53:44.689Z,-1.31
2023-11-20T06:56:21.636Z,-1.20
2023-11-20T06:58:49.105Z,-1.24
2023-11-20T07:01:18.841Z,-1.22
2023-11-20T07:03:46.662Z,-1.31
2023-11-20T07:06:15.832Z,-1.29
2023-11-20T07:08:43.958Z,-1.29
2023-11-20T07:11:11.768Z,-1.22
2023-11-20T07:13:39.065Z,-1.14
2023-11-20T07:16:07.096Z,-1.15
2023-11-20T07:18:35.743Z,-1.10
2023-11-20T07:21:03.949Z,-1.10
2023-11-20T07:23:31.516Z,-1.17
2023-11-20T07:25:59.189Z,-1.18
2023-11-20T07:28:27.153Z,-1.14
2023-11-20T07:30:54.595Z,-1.10
2023-11-20T07:33:22.072Z,-1.06
2023-11-20T07:35:50.146Z,-1.07
2023-11-20T07:38:17.797Z,-1.07
2023-11-20T07:40:45.367Z,-1.03
2023-11-20T07:43:14.131Z,-1.09
2023-11-20T07:45:42.350Z,-1.05
2023-11-20T07:48:10.953Z,-0.99
2023-11-20T07:50:38.411Z,-0.93
2023-11-20T07:53:06.109Z,-0.87
2023-11-20T07:55:33.884Z,-0.90
2023-11-20T07:58:01.805Z,-0.93
2023-11-20T08:00:29.193Z,-0.95
2023-11-20T08:02:56.574Z,-0.97
2023-11-20T08:05:24.064Z,-0.91
2023-11-20T08:07:51.697Z,-0.99
2023-11-20T08:10:19.776Z,-0.88
2023-11-20T08:12:50.276Z,-0.83
2023-11-20T08:15:17.895Z,-0.87
2023-11-20T08:17:45.545Z,-0.81
2023-11-20T08:20:13.207Z,-0.78
2023-11-20T08:22:41.167Z,-0.76
2023-11-20T08:25:08.965Z,-0.74
2023-11-20T08:27:41.087Z,-0.70
2023-11-20T08:30:09.932Z,-0.68
2023-11-20T08:32:37.419Z,-0.73
2023-11-20T08:35:04.887Z,-0.70
2023-11-20T08:37:32.242Z,-0.69
2023-11-20T08:40:00.754Z,-0.71
2023-11-20T08:42:28.284Z,-0.61
2023-11-20T08:44:55.715Z,-0.65
2023-11-20T08:47:24.124Z,-0.62
2023-11-20T08:49:53.779Z,-0.63
2023-11-20T08:52:21.419Z,-0.56
2023-11-20T08:54:48.931Z,-0.66
2023-11-20T08:57:16.353Z,-0.63
2023-11-20T08:59:43.644Z,-0.69
2023-11-20T09:02:11.039Z,-0.61
2023-11-20T09:04:38.728Z,-0.55
2023-11-20T09:07:06.805Z,-0.56
2023-11-20T09:09:36.624Z,-0.49
2023-11-20T09:12:04.839Z,-0.47
2023-11-20T09:14:32.640Z,-0.50
2023-11-20T09:17:00.415Z,-0.53
2023-11-20T09:19:28.300Z,-0.44
2023-11-20T09:21:55.706Z,-0.44
2023-11-20T09:24:23.179Z,-0.44
2023-11-20T09:26:50.511Z,-0.43
2023-11-20T09:29:18.410Z,-0.39
2023-11-20T09:31:49.180Z,-0.35
2023-11-20T09:34:17.265Z,-0.31
2023-11-20T09:36:44.800Z,-0.29
2023-11-20T09:39:14.491Z,-0.24
2023-11-20T09:41:43.464Z,-0.25
2023-11-20T09:44:14.220Z,-0.24
2023-11-20T09:46:44.419Z,-0.20
2023-11-20T09:49:16.603Z,-0.22
2023-11-20T09:51:45.280Z,-0.26
2023-11-20T09:54:13.949Z,-0.24
2023-11-20T09:56:41.634Z,-0.19
2023-11-20T09:59:09.885Z,-0.18
2023-11-20T10:01:37.321Z,-0.15
2023-11-20T10:04:05.647Z,-0.12
2023-11-20T10:06:34.513Z,-0.12
2023-11-20T10:09:03.560Z,-0.15
2023-11-20T10:11:32.599Z,-0.15
2023-11-20T10:13:59.888Z,-0.08
2023-11-20T10:16:33.938Z,-0.09
2023-11-20T10:19:02.429Z,-0.05
2023-11-20T10:21:30.855Z,-0.04
2023-11-20T10:24:01.142Z,-0.02
2023-11-20T10:26:28.512Z,-0.03
2023-11-20T10:28:56.935Z,0.00
2023-11-20T10:31:27.881Z,0.00
2023-11-20T10:34:08.277Z,0.03
2023-11-20T10:36:36.182Z,0.00
2023-11-20T10:39:04.418Z,-0.04
2023-11-20T10:41:31.791Z,-0.03
2023-11-20T10:44:00.194Z,0.00
2023-11-20T10:46:27.790Z,0.00
2023-11-20T10:48:56.178Z,0.02
2023-11-20T10:51:24.629Z,0.07
2023-11-20T10:54:02.590Z,0.06
2023-11-20T10:56:34.956Z,0.06
2023-11-20T10:59:05.321Z,0.10
2023-11-20T11:01:36.308Z,0.11
2023-11-20T11:04:04.492Z,0.13
2023-11-20T11:06:32.486Z,0.16
2023-11-20T11:09:02.940Z,0.17
2023-11-20T11:11:31.359Z,0.19
2023-11-20T11:13:59.086Z,0.20
2023-11-20T11:16:39.185Z,0.18
2023-11-20T11:19:10.467Z,0.14
2023-11-20T11:21:47.764Z,0.14
2023-11-20T11:24:16.493Z,0.16
2023-11-20T11:26:54.070Z,0.18
2023-11-20T11:29:24.295Z,0.21
2023-11-20T11:32:19.470Z,0.24
2023-11-20T11:35:03.036Z,0.20
2023-11-20T11:37:37.109Z,0.21
2023-11-20T11:40:11.085Z,0.21
2023-11-20T11:42:40.390Z,0.19
2023-11-20T11:45:18.985Z,0.19
2023-11-20T11:47:46.950Z,0.20
2023-11-20T11:50:18.370Z,0.18
2023-11-20T11:52:49.750Z,0.19
2023-11-20T11:55:17.837Z,0.20
2023-11-20T11:57:50.647Z,0.20
2023-11-20T12:00:18.537Z,0.22
2023-11-20T12:03:18.439Z,0.26
2023-11-20T12:05:54.884Z,0.26
2023-11-20T12:08:23.503Z,0.28
2023-11-20T12:10:55.010Z,0.28
2023-11-20T12:13:22.922Z,0.29
2023-11-20T12:15:54.336Z,0.30
2023-11-20T12:18:22.960Z,0.30
2023-11-20T12:20:56.276Z,0.30
2023-11-20T12:23:24.146Z,0.30
2023-11-20T12:25:54.674Z,0.28
2023-11-20T12:28:23.223Z,0.30
2023-11-20T12:30:51.407Z,0.30
2023-11-20T12:33:19.217Z,0.28
2023-11-20T12:35:50.649Z,0.27
2023-11-20T12:38:18.546Z,0.24
2023-11-20T12:40:53.015Z,0.22
2023-11-20T12:43:21.026Z,0.24
2023-11-20T12:45:49.021Z,0.22
2023-11-20T12:48:16.527Z,0.22
2023-11-20T12:50:53.281Z,0.22
2023-11-20T12:53:21.345Z,0.21
2023-11-20T12:55:49.901Z,0.21
2023-11-20T12:58:18.136Z,0.20
2023-11-20T13:00:46.337Z,0.21
2023-11-20T13:03:20.928Z,0.19
2023-11-20T13:05:52.321Z,0.19
2023-11-20T13:08:20.940Z,0.20
2023-11-20T13:10:52.476Z,0.21
2023-11-20T13:13:22.110Z,0.20
2023-11-20T13:15:51.378Z,0.21
2023-11-20T13:18:19.438Z,0.21
2023-11-20T13:20:47.773Z,0.20
2023-11-20T13:23:18.670Z,0.19
2023-11-20T13:25:47.010Z,0.18
2023-11-20T13:28:15.316Z,0.16
2023-11-20T13:31:02.294Z,0.13
2023-11-20T13:33:30.633Z,0.08
2023-11-20T13:35:58.763Z,0.08
2023-11-20T13:38:26.819Z,0.09
2023-11-20T13:40:55.790Z,0.09
2023-11-20T13:43:23.953Z,0.11
2023-11-20T13:45:56.939Z,0.09
2023-11-20T13:48:24.662Z,0.12
2023-11-20T13:50:52.928Z,0.10
2023-11-20T13:53:21.510Z,0.06
2023-11-20T13:55:50.423Z,0.05
2023-11-20T13:58:25.747Z,0.08
2023-11-20T14:00:53.314Z,0.09
2023-11-20T14:03:21.407Z,0.09
2023-11-20T14:05:49.604Z,0.08
2023-11-20T14:08:27.026Z,0.08
2023-11-20T14:10:59.551Z,0.06
2023-11-20T14:13:27.419Z,0.04
2023-11-20T14:15:57.529Z,0.00
2023-11-20T14:18:29.153Z,0.06
2023-11-20T14:20:57.734Z,0.08
2023-11-20T14:23:25.391Z,0.07
2023-11-20T14:28:23.539Z,0.09
2023-11-20T14:30:51.278Z,0.04
2023-11-20T14:33:18.952Z,-0.05
2023-11-20T14:35:46.520Z,-0.05
2023-11-20T14:38:14.491Z,-0.03
2023-11-20T14:40:42.049Z,-0.01
2023-11-20T14:43:09.984Z,0.04
2023-11-20T14:45:38.538Z,0.05
2023-11-20T14:48:06.230Z,0.09
2023-11-20T14:50:34.014Z,0.07
2023-11-20T14:53:01.522Z,0.04
2023-11-20T14:55:29.125Z,0.01
2023-11-20T14:57:57.730Z,0.03
2023-11-20T15:00:27.713Z,0.04
2023-11-20T15:02:55.264Z,0.04
2023-11-20T15:05:22.825Z,0.03
2023-11-20T15:07:50.675Z,0.00
2023-11-20T15:10:19.634Z,0.01
2023-11-20T15:12:47.621Z,-0.03
2023-11-20T15:15:15.833Z,-0.03
2023-11-20T15:17:44.829Z,-0.06
2023-11-20T15:20:19.125Z,-0.04
2023-11-20T15:22:47.765Z,0.01
2023-11-20T15:25:17.962Z,-0.01
2023-11-20T15:27:45.452Z,0.03
2023-11-20T15:30:18.769Z,0.04
2023-11-20T15:32:46.862Z,-0.04
2023-11-20T15:35:15.378Z,-0.07
2023-11-20T15:37:43.028Z,-0.06
2023-11-20T15:40:10.899Z,-0.01
2023-11-20T15:42:38.885Z,-0.01
2023-11-20T15:45:06.716Z,-0.02
2023-11-20T15:47:34.916Z,-0.01
2023-11-20T15:50:02.798Z,-0.03
2023-11-20T15:52:30.863Z,-0.03
2023-11-20T15:54:59.669Z,-0.04
2023-11-20T15:57:28.659Z,-0.04
2023-11-20T15:59:58.488Z,-0.05
2023-11-20T16:02:27.717Z,-0.01
2023-11-20T16:04:55.728Z,-0.06
2023-11-20T16:07:23.661Z,-0.03
2023-11-20T16:09:51.248Z,-0.05
2023-11-20T16:12:18.707Z,-0.05
2023-11-20T16:14:46.097Z,-0.08
2023-11-20T16:17:13.867Z,-0.14
2023-11-20T16:19:41.493Z,-0.20
2023-11-20T16:22:08.855Z,-0.17
2023-11-20T16:24:36.227Z,-0.14
2023-11-20T16:27:03.976Z,-0.13
2023-11-20T16:29:31.521Z,-0.12
2023-11-20T16:32:00.648Z,-0.12
2023-11-20T16:34:28.527Z,-0.15
2023-11-20T16:36:56.335Z,-0.17
2023-11-20T16:39:24.125Z,-0.16
2023-11-20T16:41:52.002Z,-0.14
2023-11-20T16:44:22.610Z,-0.15
2023-11-20T16:46:50.670Z,-0.18
2023-11-20T16:49:19.114Z,-0.13
2023-11-20T16:51:47.468Z,-0.20
2023-11-20T16:54:14.963Z,-0.13
2023-11-20T16:56:42.324Z,-0.19
2023-11-20T16:59:09.827Z,-0.15
2023-11-20T17:01:37.793Z,-0.13
2023-11-20T17:04:06.095Z,-0.14
2023-11-20T17:06:34.463Z,-0.13
2023-11-20T17:09:01.911Z,-0.17
2023-11-20T17:11:29.255Z,-0.20
2023-11-20T17:13:56.696Z,-0.20
2023-11-20T17:16:24.528Z,-0.18
2023-11-20T17:18:52.107Z,-0.15
2023-11-20T17:21:19.723Z,-0.12
2023-11-20T17:23:47.179Z,-0.14
2023-11-20T17:26:15.958Z,-0.11
2023-11-20T17:28:43.314Z,-0.11
2023-11-20T17:31:10.700Z,-0.12
2023-11-20T17:33:38.143Z,-0.13
2023-11-20T17:36:05.716Z,-0.07
2023-11-20T17:38:33.568Z,-0.09
2023-11-20T17:41:01.238Z,-0.01
2023-11-20T17:43:28.953Z,-0.02
2023-11-20T17:45:57.625Z,-0.06
2023-11-20T17:48:26.826Z,-0.07
2023-11-20T17:50:57.115Z,-0.11
2023-11-20T17:53:24.914Z,0.00
2023-11-20T17:55:52.932Z,-0.06
2023-11-20T17:58:21.926Z,-0.11
2023-11-20T18:00:53.232Z,-0.24
2023-11-20T18:03:21.225Z,-0.20
2023-11-20T18:05:49.545Z,-0.18
2023-11-20T18:08:17.340Z,-0.08
2023-11-20T18:10:45.445Z,-0.05
2023-11-20T18:13:13.473Z,-0.15
2023-11-20T18:15:43.488Z,-0.23
2023-11-20T18:18:11.683Z,-0.12
2023-11-20T18:20:39.159Z,-0.16
2023-11-20T18:23:06.487Z,-0.22
2023-11-20T18:25:34.504Z,-0.25
2023-11-20T18:28:03.182Z,-0.28
2023-11-20T18:30:30.968Z,-0.28
2023-11-20T18:32:58.280Z,-0.29
2023-11-20T18:35:26.343Z,-0.27
2023-11-20T18:37:53.969Z,-0.30
2023-11-20T18:40:24.615Z,-0.21
2023-11-20T18:42:54.141Z,-0.21
2023-11-20T18:45:23.499Z,-0.27
2023-11-20T18:47:51.554Z,-0.15
2023-11-20T18:50:19.455Z,-0.23
2023-11-20T18:52:46.979Z,-0.22
2023-11-20T18:55:15.110Z,-0.16
2023-11-20T18:57:45.482Z,-0.21
2023-11-20T19:00:16.913Z,-0.23
2023-11-20T19:02:45.094Z,-0.18
2023-11-20T19:05:14.606Z,-0.21
2023-11-20T19:07:45.041Z,-0.17
2023-11-20T19:10:12.693Z,-0.17
2023-11-20T19:12:45.642Z,-0.22
2023-11-20T19:15:14.035Z,-0.20
2023-11-20T19:17:42.657Z,-0.19
2023-11-20T19:20:14.513Z,-0.18
2023-11-20T19:22:42.672Z,-0.23
2023-11-20T19:25:15.610Z,-0.23
2023-11-20T19:27:44.517Z,-0.25
2023-11-20T19:30:17.589Z,-0.24
2023-11-20T19:32:45.493Z,-0.22
2023-11-20T19:35:12.777Z,-0.19
2023-11-20T19:37:41.601Z,-0.26
2023-11-20T19:40:11.578Z,-0.15
2023-11-20T19:42:40.946Z,-0.20
2023-11-20T19:45:09.971Z,-0.13
2023-11-20T19:47:38.036Z,-0.22
2023-11-20T19:50:07.424Z,-0.19
2023-11-20T19:52:35.944Z,-0.16
2023-11-20T19:55:03.565Z,-0.13
2023-11-20T19:57:31.070Z,-0.18
2023-11-20T19:59:59.476Z,-0.19
2023-11-20T20:02:28.447Z,-0.20
2023-11-20T20:04:56.004Z,-0.20
2023-11-20T20:07:24.050Z,-0.25
2023-11-20T20:09:51.986Z,-0.27
2023-11-20T20:12:19.543Z,-0.21
2023-11-20T20:14:51.261Z,-0.18
2023-11-20T20:17:20.102Z,-0.16
2023-11-20T20:19:49.339Z,-0.18
2023-11-20T20:22:17.935Z,-0.22
2023-11-20T20:24:45.633Z,-0.25
2023-11-20T20:27:13.344Z,-0.29
2023-11-20T20:29:42.176Z,-0.23
2023-11-20T20:32:10.460Z,-0.14
2023-11-20T20:34:38.256Z,-0.06
2023-11-20T20:37:05.668Z,-0.11
2023-11-20T20:39:34.106Z,-0.13
2023-11-20T20:42:03.012Z,-0.07
2023-11-20T20:44:30.659Z,-0.06
2023-11-20T20:46:58.303Z,-0.09
2023-11-20T20:49:25.729Z,-0.07
2023-11-20T20:51:53.658Z,-0.16
2023-11-20T20:54:21.320Z,-0.10
2023-11-20T20:56:48.879Z,-0.07
2023-11-20T20:59:17.499Z,0.00
2023-11-20T21:01:45.785Z,-0.06
2023-11-20T21:04:15.002Z,-0.12
2023-11-20T21:06:42.618Z,-0.11
2023-11-20T21:09:10.140Z,-0.07
2023-11-20T21:11:37.940Z,-0.08
2023-11-20T21:14:05.481Z,-0.11
2023-11-20T21:16:32.933Z,-0.13
2023-11-20T21:19:01.619Z,-0.09
2023-11-20T21:21:29.186Z,-0.10
2023-11-20T21:23:57.129Z,-0.09
2023-11-20T21:26:24.457Z,-0.10
2023-11-20T21:28:51.751Z,-0.09
2023-11-20T21:31:20.416Z,-0.09
2023-11-20T21:33:47.776Z,-0.14
2023-11-20T21:36:20.358Z,-0.08
2023-11-20T21:38:50.019Z,-0.08
2023-11-20T21:41:18.053Z,-0.04
2023-11-20T21:43:45.765Z,-0.12
2023-11-20T21:46:13.633Z,-0.08
2023-11-20T21:48:41.245Z,-0.04
2023-11-20T21:51:08.831Z,-0.11
2023-11-20T21:53:36.696Z,-0.08
2023-11-20T21:56:06.287Z,-0.15
2023-11-20T21:58:33.680Z,-0.14
2023-11-20T22:01:01.101Z,-0.19
2023-11-20T22:03:29.411Z,-0.13
2023-11-20T22:05:57.234Z,-0.17
2023-11-20T22:08:24.784Z,-0.15
2023-11-20T22:10:52.137Z,-0.14
2023-11-20T22:13:19.506Z,-0.13
2023-11-20T22:15:47.074Z,-0.12
2023-11-20T22:18:14.604Z,-0.05
2023-11-20T22:20:42.012Z,-0.14
2023-11-20T22:23:09.270Z,-0.11
2023-11-20T22:25:36.979Z,-0.11
2023-11-20T22:30:32.763Z,-0.06
2023-11-20T22:33:00.436Z,-0.12
2023-11-20T22:35:28.091Z,-0.04
2023-11-20T22:37:56.988Z,-0.08
2023-11-20T22:40:26.385Z,-0.03
2023-11-20T22:42:54.063Z,-0.04
2023-11-20T22:45:21.652Z,-0.09
2023-11-20T22:47:49.223Z,-0.07
2023-11-20T22:50:17.737Z,-0.04
2023-11-20T22:52:45.447Z,-0.03
2023-11-20T22:55:13.142Z,0.04
2023-11-20T22:57:40.472Z,0.09
2023-11-20T23:00:09.340Z,0.11
2023-11-20T23:02:36.866Z,0.08
2023-11-20T23:05:04.763Z,0.07
2023-11-20T23:07:32.233Z,0.09
2023-11-20T23:09:59.627Z,0.12
2023-11-20T23:12:26.813Z,0.17
2023-11-20T23:14:54.097Z,0.17
2023-11-20T23:17:21.506Z,0.19
2023-11-20T23:19:48.800Z,0.24
2023-11-20T23:22:16.198Z,0.26
2023-11-20T23:24:43.872Z,0.27
2023-11-20T23:27:11.090Z,0.28
2023-11-20T23:29:38.482Z,0.27
2023-11-20T23:32:06.200Z,0.30
2023-11-20T23:34:33.787Z,0.31
2023-11-20T23:37:01.465Z,0.34
2023-11-20T23:39:29.193Z,0.35
2023-11-20T23:41:56.777Z,0.35
2023-11-20T23:44:24.280Z,0.33
2023-11-20T23:46:52.736Z,0.30
2023-11-20T23:49:20.287Z,0.31
2023-11-20T23:51:47.604Z,0.30
2023-11-20T23:54:14.911Z,0.25
2023-11-20T23:56:42.222Z,0.18
2023-11-20T23:59:10.664Z,0.16
